sensor_id;sensor_type;location;lat;lon;timestamp;pressure;altitude;pressure_sealevel;temperature;humidity
21276;BME280;36472;52.170;20.884;2023-06-24T00:02:10;100528.50;;;20.93;65.83
21276;BME280;36472;52.170;20.884;2023-06-24T00:04:40;100526.16;;;20.90;65.52
21276;BME280;36472;52.170;20.884;2023-06-24T00:07:09;100526.84;;;20.92;65.89
21276;BME280;36472;52.170;20.884;2023-06-24T00:09:38;100523.47;;;20.90;66.00
21276;BME280;36472;52.170;20.884;2023-06-24T00:12:08;100527.00;;;20.83;66.04
21276;BME280;36472;52.170;20.884;2023-06-24T00:14:37;100528.81;;;20.90;66.14
21276;BME280;36472;52.170;20.884;2023-06-24T00:17:06;100533.19;;;20.91;66.02
21276;BME280;36472;52.170;20.884;2023-06-24T00:19:36;100530.81;;;20.88;65.78
21276;BME280;36472;52.170;20.884;2023-06-24T00:22:06;100531.84;;;20.87;66.30
21276;BME280;36472;52.170;20.884;2023-06-24T00:24:35;100528.16;;;20.88;66.56
21276;BME280;36472;52.170;20.884;2023-06-24T00:27:05;100525.47;;;20.88;66.05
21276;BME280;36472;52.170;20.884;2023-06-24T00:29:34;100517.47;;;20.88;65.80
21276;BME280;36472;52.170;20.884;2023-06-24T00:32:04;100517.47;;;20.88;65.96
21276;BME280;36472;52.170;20.884;2023-06-24T00:34:34;100526.50;;;20.87;65.91
21276;BME280;36472;52.170;20.884;2023-06-24T00:37:03;100530.00;;;20.88;65.76
21276;BME280;36472;52.170;20.884;2023-06-24T00:39:35;100540.69;;;20.88;65.68
21276;BME280;36472;52.170;20.884;2023-06-24T00:42:06;100539.31;;;20.84;65.79
21276;BME280;36472;52.170;20.884;2023-06-24T00:44:35;100540.50;;;20.81;66.06
21276;BME280;36472;52.170;20.884;2023-06-24T00:47:06;100548.16;;;20.76;66.33
21276;BME280;36472;52.170;20.884;2023-06-24T00:49:36;100548.66;;;20.80;66.36
21276;BME280;36472;52.170;20.884;2023-06-24T00:52:07;100544.50;;;20.77;66.70
21276;BME280;36472;52.170;20.884;2023-06-24T00:54:40;100549.31;;;20.73;66.50
21276;BME280;36472;52.170;20.884;2023-06-24T00:57:09;100548.16;;;20.76;66.47
21276;BME280;36472;52.170;20.884;2023-06-24T00:59:40;100558.19;;;20.74;66.44
21276;BME280;36472;52.170;20.884;2023-06-24T01:02:12;100570.53;;;20.67;66.65
21276;BME280;36472;52.170;20.884;2023-06-24T01:04:41;100567.66;;;20.68;66.65
21276;BME280;36472;52.170;20.884;2023-06-24T01:07:11;100564.81;;;20.70;66.73
21276;BME280;36472;52.170;20.884;2023-06-24T01:09:41;100576.69;;;20.67;66.74
21276;BME280;36472;52.170;20.884;2023-06-24T01:12:10;100576.69;;;20.67;66.66
21276;BME280;36472;52.170;20.884;2023-06-24T01:14:40;100575.16;;;20.65;67.05
21276;BME280;36472;52.170;20.884;2023-06-24T01:17:16;100579.19;;;20.69;67.17
21276;BME280;36472;52.170;20.884;2023-06-24T01:20:05;100576.69;;;20.67;66.83
21276;BME280;36472;52.170;20.884;2023-06-24T01:23:36;100576.69;;;20.67;67.28
21276;BME280;36472;52.170;20.884;2023-06-24T01:26:28;100587.53;;;20.66;67.47
21276;BME280;36472;52.170;20.884;2023-06-24T01:29:34;100585.28;;;20.61;67.18
21276;BME280;36472;52.170;20.884;2023-06-24T01:32:23;100585.09;;;20.54;67.39
21276;BME280;36472;52.170;20.884;2023-06-24T01:35:00;100581.09;;;20.50;67.72
21276;BME280;36472;52.170;20.884;2023-06-24T01:37:37;100586.59;;;20.49;67.89
21276;BME280;36472;52.170;20.884;2023-06-24T01:40:13;100584.22;;;20.46;68.19
21276;BME280;36472;52.170;20.884;2023-06-24T01:42:47;100577.75;;;20.48;68.13
21276;BME280;36472;52.170;20.884;2023-06-24T01:45:22;100566.88;;;20.42;68.02
21276;BME280;36472;52.170;20.884;2023-06-24T01:48:00;100565.72;;;20.44;68.08
21276;BME280;36472;52.170;20.884;2023-06-24T01:50:33;100572.06;;;20.43;68.13
21276;BME280;36472;52.170;20.884;2023-06-24T01:53:06;100566.88;;;20.42;68.21
21276;BME280;36472;52.170;20.884;2023-06-24T01:55:38;100580.25;;;20.50;68.17
21276;BME280;36472;52.170;20.884;2023-06-24T01:58:13;100582.38;;;20.38;68.06
21276;BME280;36472;52.170;20.884;2023-06-24T02:00:43;100572.31;;;20.32;68.47
21276;BME280;36472;52.170;20.884;2023-06-24T02:03:14;100577.50;;;20.33;68.54
21276;BME280;36472;52.170;20.884;2023-06-24T02:05:46;100579.66;;;20.30;68.64
21276;BME280;36472;52.170;20.884;2023-06-24T02:08:20;100593.69;;;20.32;68.91
21276;BME280;36472;52.170;20.884;2023-06-24T02:10:51;100598.84;;;20.33;69.37
21276;BME280;36472;52.170;20.884;2023-06-24T02:13:23;100604.34;;;20.32;70.36
21276;BME280;36472;52.170;20.884;2023-06-24T02:15:54;100604.66;;;20.29;69.93
21276;BME280;36472;52.170;20.884;2023-06-24T02:18:27;100604.97;;;20.26;70.27
21276;BME280;36472;52.170;20.884;2023-06-24T02:20:58;100606.16;;;20.23;70.08
21276;BME280;36472;52.170;20.884;2023-06-24T02:23:29;100594.66;;;20.23;70.34
21276;BME280;36472;52.170;20.884;2023-06-24T02:26:01;100607.28;;;20.21;71.31
21276;BME280;36472;52.170;20.884;2023-06-24T02:28:33;100602.97;;;20.20;71.78
21276;BME280;36472;52.170;20.884;2023-06-24T02:31:04;100609.31;;;20.27;71.21
21276;BME280;36472;52.170;20.884;2023-06-24T02:33:36;100609.78;;;20.22;70.78
21276;BME280;36472;52.170;20.884;2023-06-24T02:36:05;100604.78;;;20.19;70.53
21276;BME280;36472;52.170;20.884;2023-06-24T02:38:35;100608.44;;;20.18;70.45
21276;BME280;36472;52.170;20.884;2023-06-24T02:41:04;100611.13;;;20.18;70.58
21276;BME280;36472;52.170;20.884;2023-06-24T02:43:33;100613.94;;;20.16;70.75
21276;BME280;36472;52.170;20.884;2023-06-24T02:46:05;100609.13;;;20.20;70.75
21276;BME280;36472;52.170;20.884;2023-06-24T02:48:37;100613.63;;;20.20;70.38
21276;BME280;36472;52.170;20.884;2023-06-24T02:51:08;100628.25;;;20.15;71.18
21276;BME280;36472;52.170;20.884;2023-06-24T02:53:40;100627.38;;;20.07;71.07
21276;BME280;36472;52.170;20.884;2023-06-24T02:56:13;100621.53;;;20.03;71.17
21276;BME280;36472;52.170;20.884;2023-06-24T02:58:45;100628.53;;;20.04;71.08
21276;BME280;36472;52.170;20.884;2023-06-24T03:01:22;100637.06;;;20.08;71.09
21276;BME280;36472;52.170;20.884;2023-06-24T03:03:56;100639.72;;;20.08;71.13
21276;BME280;36472;52.170;20.884;2023-06-24T03:06:26;100641.41;;;20.09;70.74
21276;BME280;36472;52.170;20.884;2023-06-24T03:09:00;100642.91;;;20.11;70.71
21276;BME280;36472;52.170;20.884;2023-06-24T03:11:31;100642.91;;;20.11;70.88
21276;BME280;36472;52.170;20.884;2023-06-24T03:14:10;100644.59;;;20.12;71.43
21276;BME280;36472;52.170;20.884;2023-06-24T03:16:42;100642.25;;;20.09;71.72
21276;BME280;36472;52.170;20.884;2023-06-24T03:23:48;100639.88;;;20.06;71.44
21276;BME280;36472;52.170;20.884;2023-06-24T03:26:17;100636.91;;;20.09;71.26
21276;BME280;36472;52.170;20.884;2023-06-24T03:28:47;100644.25;;;20.07;71.25
21276;BME280;36472;52.170;20.884;2023-06-24T03:31:17;100652.91;;;20.09;71.12
21276;BME280;36472;52.170;20.884;2023-06-24T03:33:51;100654.41;;;20.12;71.13
21276;BME280;36472;52.170;20.884;2023-06-24T03:36:21;100653.59;;;20.11;71.46
21276;BME280;36472;52.170;20.884;2023-06-24T03:38:53;100656.63;;;20.16;71.36
21276;BME280;36472;52.170;20.884;2023-06-24T03:41:23;100658.16;;;20.19;72.22
21276;BME280;36472;52.170;20.884;2023-06-24T03:43:54;100664.34;;;20.20;71.97
21276;BME280;36472;52.170;20.884;2023-06-24T03:46:23;100662.84;;;20.25;72.43
21276;BME280;36472;52.170;20.884;2023-06-24T03:48:54;100670.41;;;20.30;72.10
21276;BME280;36472;52.170;20.884;2023-06-24T03:51:23;100672.91;;;20.31;71.86
21276;BME280;36472;52.170;20.884;2023-06-24T03:53:54;100666.25;;;20.35;71.79
21276;BME280;36472;52.170;20.884;2023-06-24T03:56:23;100674.09;;;20.37;72.03
21276;BME280;36472;52.170;20.884;2023-06-24T03:58:52;100676.63;;;20.39;71.73
21276;BME280;36472;52.170;20.884;2023-06-24T04:01:21;100674.31;;;20.44;71.65
21276;BME280;36472;52.170;20.884;2023-06-24T04:03:50;100673.34;;;20.45;71.52
21276;BME280;36472;52.170;20.884;2023-06-24T04:06:19;100675.19;;;20.52;71.67
21276;BME280;36472;52.170;20.884;2023-06-24T04:08:48;100670.31;;;20.48;71.31
21276;BME280;36472;52.170;20.884;2023-06-24T04:11:21;100663.47;;;20.45;71.07
21276;BME280;36472;52.170;20.884;2023-06-24T04:13:50;100673.66;;;20.42;71.64
21276;BME280;36472;52.170;20.884;2023-06-24T04:16:19;100666.66;;;20.49;71.61
21276;BME280;36472;52.170;20.884;2023-06-24T04:18:48;100668.88;;;20.53;71.11
21276;BME280;36472;52.170;20.884;2023-06-24T04:21:17;100670.81;;;20.43;70.98
21276;BME280;36472;52.170;20.884;2023-06-24T04:23:47;100671.81;;;20.42;71.66
21276;BME280;36472;52.170;20.884;2023-06-24T04:26:17;100670.00;;;20.51;71.43
21276;BME280;36472;52.170;20.884;2023-06-24T04:28:47;100669.53;;;20.55;71.81
21276;BME280;36472;52.170;20.884;2023-06-24T04:31:16;100667.25;;;20.61;71.91
21276;BME280;36472;52.170;20.884;2023-06-24T04:33:46;100662.28;;;20.66;71.97
21276;BME280;36472;52.170;20.884;2023-06-24T04:36:14;100656.94;;;20.66;71.76
21276;BME280;36472;52.170;20.884;2023-06-24T04:38:44;100664.00;;;20.75;72.06
21276;BME280;36472;52.170;20.884;2023-06-24T04:41:13;100664.19;;;20.82;71.58
21276;BME280;36472;52.170;20.884;2023-06-24T04:43:42;100665.88;;;20.83;70.91
21276;BME280;36472;52.170;20.884;2023-06-24T04:46:12;100662.72;;;20.87;70.46
21276;BME280;36472;52.170;20.884;2023-06-24T04:48:42;100674.44;;;20.95;70.80
21276;BME280;36472;52.170;20.884;2023-06-24T04:51:10;100674.13;;;21.06;70.38
21276;BME280;36472;52.170;20.884;2023-06-24T04:53:39;100670.34;;;21.17;70.19
21276;BME280;36472;52.170;20.884;2023-06-24T04:56:08;100665.53;;;21.28;69.64
21276;BME280;36472;52.170;20.884;2023-06-24T04:58:37;100665.50;;;21.37;68.80
21276;BME280;36472;52.170;20.884;2023-06-24T05:01:06;100664.84;;;21.35;68.33
21276;BME280;36472;52.170;20.884;2023-06-24T05:03:37;100669.72;;;21.39;68.52
21276;BME280;36472;52.170;20.884;2023-06-24T05:06:05;100665.84;;;21.42;67.92
21276;BME280;36472;52.170;20.884;2023-06-24T05:08:35;100670.88;;;21.45;67.67
21276;BME280;36472;52.170;20.884;2023-06-24T05:11:03;100678.78;;;21.46;67.55
21276;BME280;36472;52.170;20.884;2023-06-24T05:13:33;100691.00;;;21.49;67.86
21276;BME280;36472;52.170;20.884;2023-06-24T05:16:02;100699.50;;;21.53;67.75
21276;BME280;36472;52.170;20.884;2023-06-24T05:18:31;100698.34;;;21.63;67.11
21276;BME280;36472;52.170;20.884;2023-06-24T05:21:01;100696.34;;;21.65;66.93
21276;BME280;36472;52.170;20.884;2023-06-24T05:23:30;100700.72;;;21.66;66.77
21276;BME280;36472;52.170;20.884;2023-06-24T05:25:59;100702.72;;;21.73;66.49
21276;BME280;36472;52.170;20.884;2023-06-24T05:33:00;100711.09;;;21.94;66.16
21276;BME280;36472;52.170;20.884;2023-06-24T05:35:29;100715.63;;;22.02;65.41
21276;BME280;36472;52.170;20.884;2023-06-24T05:42:33;100722.13;;;21.99;64.62
21276;BME280;36472;52.170;20.884;2023-06-24T05:49:32;100726.63;;;22.15;65.59
21276;BME280;36472;52.170;20.884;2023-06-24T05:52:01;100734.50;;;22.25;65.01
21276;BME280;36472;52.170;20.884;2023-06-24T05:54:31;100736.03;;;22.28;65.16
21276;BME280;36472;52.170;20.884;2023-06-24T05:57:00;100732.84;;;22.32;64.89
21276;BME280;36472;52.170;20.884;2023-06-24T06:04:01;100736.16;;;22.51;63.96
21276;BME280;36472;52.170;20.884;2023-06-24T06:06:30;100736.50;;;22.48;63.72
21276;BME280;36472;52.170;20.884;2023-06-24T06:08:59;100741.19;;;22.46;64.26
21276;BME280;36472;52.170;20.884;2023-06-24T06:11:28;100733.97;;;22.54;64.19
21276;BME280;36472;52.170;20.884;2023-06-24T06:13:57;100733.97;;;22.63;63.57
21276;BME280;36472;52.170;20.884;2023-06-24T06:16:26;100739.13;;;22.81;63.45
21276;BME280;36472;52.170;20.884;2023-06-24T06:18:56;100741.06;;;23.03;62.61
21276;BME280;36472;52.170;20.884;2023-06-24T06:21:26;100742.00;;;23.27;59.99
21276;BME280;36472;52.170;20.884;2023-06-24T06:23:55;100744.66;;;23.27;59.45
21276;BME280;36472;52.170;20.884;2023-06-24T06:26:24;100737.81;;;23.24;59.66
21276;BME280;36472;52.170;20.884;2023-06-24T06:28:53;100733.59;;;23.30;59.39
21276;BME280;36472;52.170;20.884;2023-06-24T06:31:22;100745.72;;;23.49;59.02
21276;BME280;36472;52.170;20.884;2023-06-24T06:33:54;100749.31;;;23.64;58.74
21276;BME280;36472;52.170;20.884;2023-06-24T06:36:22;100743.22;;;23.70;58.35
21276;BME280;36472;52.170;20.884;2023-06-24T06:38:53;100742.94;;;23.97;58.55
21276;BME280;36472;52.170;20.884;2023-06-24T06:41:22;100740.38;;;24.18;58.53
21276;BME280;36472;52.170;20.884;2023-06-24T06:43:54;100749.59;;;24.24;56.91
21276;BME280;36472;52.170;20.884;2023-06-24T06:46:22;100749.47;;;24.17;57.52
21276;BME280;36472;52.170;20.884;2023-06-24T06:54:08;100756.44;;;23.80;58.79
21276;BME280;36472;52.170;20.884;2023-06-24T06:56:36;100759.75;;;23.90;59.47
21276;BME280;36472;52.170;20.884;2023-06-24T06:59:05;100754.38;;;23.90;58.28
21276;BME280;36472;52.170;20.884;2023-06-24T07:01:34;100752.22;;;23.86;57.14
21276;BME280;36472;52.170;20.884;2023-06-24T07:04:04;100757.06;;;23.90;57.95
21276;BME280;36472;52.170;20.884;2023-06-24T07:06:32;100755.84;;;24.16;57.52
21276;BME280;36472;52.170;20.884;2023-06-24T07:09:01;100744.28;;;24.31;57.22
21276;BME280;36472;52.170;20.884;2023-06-24T07:11:32;100753.72;;;24.50;57.34
21276;BME280;36472;52.170;20.884;2023-06-24T07:14:02;100751.22;;;24.63;56.90
21276;BME280;36472;52.170;20.884;2023-06-24T07:16:31;100758.22;;;24.49;57.11
21276;BME280;36472;52.170;20.884;2023-06-24T07:19:01;100746.66;;;24.49;57.98
21276;BME280;36472;52.170;20.884;2023-06-24T07:21:30;100744.44;;;24.52;57.95
21276;BME280;36472;52.170;20.884;2023-06-24T07:23:59;100742.06;;;24.57;57.09
21276;BME280;36472;52.170;20.884;2023-06-24T07:26:28;100739.81;;;24.46;56.46
21276;BME280;36472;52.170;20.884;2023-06-24T07:28:59;100739.25;;;24.36;56.87
21276;BME280;36472;52.170;20.884;2023-06-24T07:31:37;100736.16;;;24.39;57.00
21276;BME280;36472;52.170;20.884;2023-06-24T07:34:06;100734.44;;;24.46;57.68
21276;BME280;36472;52.170;20.884;2023-06-24T07:41:06;100744.44;;;24.52;56.63
21276;BME280;36472;52.170;20.884;2023-06-24T07:43:35;100742.53;;;24.61;56.21
21276;BME280;36472;52.170;20.884;2023-06-24T07:46:06;100752.94;;;24.79;54.51
21276;BME280;36472;52.170;20.884;2023-06-24T07:48:35;100748.66;;;24.85;53.02
21276;BME280;36472;52.170;20.884;2023-06-24T07:51:04;100756.72;;;24.85;51.87
21276;BME280;36472;52.170;20.884;2023-06-24T07:53:32;100755.91;;;24.84;51.84
21276;BME280;36472;52.170;20.884;2023-06-24T08:00:35;100762.66;;;24.80;52.42
21276;BME280;36472;52.170;20.884;2023-06-24T08:03:07;100754.22;;;24.83;51.17
21276;BME280;36472;52.170;20.884;2023-06-24T08:05:38;100753.84;;;24.86;51.49
21276;BME280;36472;52.170;20.884;2023-06-24T08:08:08;100763.09;;;24.83;51.71
21276;BME280;36472;52.170;20.884;2023-06-24T08:10:37;100765.44;;;24.87;52.38
21276;BME280;36472;52.170;20.884;2023-06-24T08:13:06;100760.25;;;25.00;51.57
21276;BME280;36472;52.170;20.884;2023-06-24T08:15:35;100763.56;;;25.17;50.36
21276;BME280;36472;52.170;20.884;2023-06-24T08:18:10;100765.97;;;25.42;51.05
21276;BME280;36472;52.170;20.884;2023-06-24T08:20:39;100772.56;;;25.39;48.34
21276;BME280;36472;52.170;20.884;2023-06-24T08:23:08;100773.97;;;25.35;49.46
21276;BME280;36472;52.170;20.884;2023-06-24T08:25:37;100774.69;;;25.44;46.22
21276;BME280;36472;52.170;20.884;2023-06-24T08:28:06;100762.63;;;25.39;46.38
21276;BME280;36472;52.170;20.884;2023-06-24T08:30:35;100767.81;;;25.41;46.22
21276;BME280;36472;52.170;20.884;2023-06-24T08:33:04;100773.19;;;25.41;46.25
21276;BME280;36472;52.170;20.884;2023-06-24T08:40:07;100774.03;;;25.78;44.84
21276;BME280;36472;52.170;20.884;2023-06-24T08:42:36;100779.56;;;25.91;44.60
21276;BME280;36472;52.170;20.884;2023-06-24T08:45:06;100783.28;;;25.90;43.28
21276;BME280;36472;52.170;20.884;2023-06-24T08:47:36;100790.53;;;25.90;42.09
21276;BME280;36472;52.170;20.884;2023-06-24T08:50:11;100784.00;;;25.99;42.09
21276;BME280;36472;52.170;20.884;2023-06-24T08:52:47;100777.59;;;26.00;41.86
21276;BME280;36472;52.170;20.884;2023-06-24T08:55:22;100777.88;;;25.90;42.29
21276;BME280;36472;52.170;20.884;2023-06-24T08:57:51;100792.34;;;26.04;41.84
21276;BME280;36472;52.170;20.884;2023-06-24T09:00:21;100792.47;;;25.96;42.16
21276;BME280;36472;52.170;20.884;2023-06-24T09:02:50;100796.00;;;25.97;43.66
21276;BME280;36472;52.170;20.884;2023-06-24T09:05:19;100785.50;;;26.02;42.89
21276;BME280;36472;52.170;20.884;2023-06-24T09:07:48;100795.09;;;26.11;42.88
21276;BME280;36472;52.170;20.884;2023-06-24T09:10:32;100802.59;;;26.16;41.79
21276;BME280;36472;52.170;20.884;2023-06-24T09:13:01;100791.38;;;26.12;42.18
21276;BME280;36472;52.170;20.884;2023-06-24T09:15:31;100797.59;;;26.12;42.42
21276;BME280;36472;52.170;20.884;2023-06-24T09:18:01;100792.41;;;26.11;42.37
21276;BME280;36472;52.170;20.884;2023-06-24T09:20:33;100794.66;;;26.07;42.49
21276;BME280;36472;52.170;20.884;2023-06-24T09:23:07;100794.78;;;25.99;43.76
21276;BME280;36472;52.170;20.884;2023-06-24T09:25:38;100782.72;;;25.95;42.65
21276;BME280;36472;52.170;20.884;2023-06-24T09:28:06;100794.22;;;25.89;42.28
21276;BME280;36472;52.170;20.884;2023-06-24T09:30:36;100791.66;;;25.81;43.02
21276;BME280;36472;52.170;20.884;2023-06-24T09:33:05;100794.84;;;25.69;42.52
21276;BME280;36472;52.170;20.884;2023-06-24T09:35:35;100788.53;;;25.62;43.13
21276;BME280;36472;52.170;20.884;2023-06-24T09:38:05;100794.59;;;25.64;43.94
21276;BME280;36472;52.170;20.884;2023-06-24T09:40:35;100799.13;;;25.64;42.20
21276;BME280;36472;52.170;20.884;2023-06-24T09:47:38;100793.06;;;25.76;43.33
21276;BME280;36472;52.170;20.884;2023-06-24T09:50:08;100797.69;;;25.83;43.26
21276;BME280;36472;52.170;20.884;2023-06-24T09:52:38;100791.97;;;25.92;43.15
21276;BME280;36472;52.170;20.884;2023-06-24T09:55:09;100801.59;;;25.95;43.67
21276;BME280;36472;52.170;20.884;2023-06-24T09:57:42;100795.84;;;25.83;43.24
21276;BME280;36472;52.170;20.884;2023-06-24T10:00:16;100792.34;;;25.68;43.51
21276;BME280;36472;52.170;20.884;2023-06-24T10:07:20;100788.69;;;25.54;44.70
21276;BME280;36472;52.170;20.884;2023-06-24T10:09:50;100785.59;;;25.57;43.34
21276;BME280;36472;52.170;20.884;2023-06-24T10:12:19;100793.75;;;25.64;44.36
21276;BME280;36472;52.170;20.884;2023-06-24T10:14:52;100793.94;;;25.62;43.20
21276;BME280;36472;52.170;20.884;2023-06-24T10:17:21;100793.97;;;25.47;42.93
21276;BME280;36472;52.170;20.884;2023-06-24T10:19:53;100788.97;;;25.44;42.92
21276;BME280;36472;52.170;20.884;2023-06-24T10:22:24;100795.72;;;25.55;45.12
21276;BME280;36472;52.170;20.884;2023-06-24T10:25:01;100806.38;;;25.63;44.08
21276;BME280;36472;52.170;20.884;2023-06-24T10:27:39;100802.00;;;25.62;43.21
21276;BME280;36472;52.170;20.884;2023-06-24T10:30:17;100803.41;;;25.58;43.25
21276;BME280;36472;52.170;20.884;2023-06-24T10:32:51;100791.22;;;25.62;43.30
21276;BME280;36472;52.170;20.884;2023-06-24T10:35:23;100794.94;;;25.76;44.00
21276;BME280;36472;52.170;20.884;2023-06-24T10:37:56;100786.25;;;25.81;43.77
21276;BME280;36472;52.170;20.884;2023-06-24T10:40:43;100796.47;;;25.85;43.50
21276;BME280;36472;52.170;20.884;2023-06-24T10:47:47;100797.34;;;26.07;44.60
21276;BME280;36472;52.170;20.884;2023-06-24T10:50:19;100796.53;;;25.92;43.39
21276;BME280;36472;52.170;20.884;2023-06-24T10:52:49;100782.31;;;25.76;44.82
21276;BME280;36472;52.170;20.884;2023-06-24T10:55:24;100788.16;;;25.65;46.29
21276;BME280;36472;52.170;20.884;2023-06-24T10:57:54;100786.16;;;25.67;46.33
21276;BME280;36472;52.170;20.884;2023-06-24T11:00:23;100782.25;;;25.55;46.79
21276;BME280;36472;52.170;20.884;2023-06-24T11:02:52;100788.97;;;25.44;46.23
21276;BME280;36472;52.170;20.884;2023-06-24T11:05:21;100794.91;;;25.39;46.41
21276;BME280;36472;52.170;20.884;2023-06-24T11:12:26;100797.97;;;25.07;47.31
21276;BME280;36472;52.170;20.884;2023-06-24T11:14:56;100798.34;;;25.04;47.98
21276;BME280;36472;52.170;20.884;2023-06-24T11:17:28;100802.44;;;24.99;47.75
21276;BME280;36472;52.170;20.884;2023-06-24T11:19:58;100806.66;;;24.94;48.03
21276;BME280;36472;52.170;20.884;2023-06-24T11:22:27;100812.69;;;24.81;48.71
21276;BME280;36472;52.170;20.884;2023-06-24T11:24:56;100809.38;;;24.79;49.88
21276;BME280;36472;52.170;20.884;2023-06-24T11:27:28;100806.50;;;24.80;49.94
21276;BME280;36472;52.170;20.884;2023-06-24T11:30:00;100799.88;;;24.68;50.06
21276;BME280;36472;52.170;20.884;2023-06-24T11:32:36;100816.50;;;24.72;50.18
21276;BME280;36472;52.170;20.884;2023-06-24T11:35:08;100819.97;;;24.57;51.03
21276;BME280;36472;52.170;20.884;2023-06-24T11:42:10;100815.97;;;24.53;51.47
21276;BME280;36472;52.170;20.884;2023-06-24T11:44:43;100821.53;;;24.52;51.29
21276;BME280;36472;52.170;20.884;2023-06-24T11:47:13;100820.88;;;24.50;51.70
21276;BME280;36472;52.170;20.884;2023-06-24T11:49:52;100812.81;;;24.50;50.58
21276;BME280;36472;52.170;20.884;2023-06-24T11:52:32;100815.09;;;24.38;51.21
21276;BME280;36472;52.170;20.884;2023-06-24T11:55:02;100820.66;;;24.36;51.52
21276;BME280;36472;52.170;20.884;2023-06-24T11:57:50;100823.88;;;24.32;51.54
21276;BME280;36472;52.170;20.884;2023-06-24T12:00:26;100831.16;;;24.23;51.55
21276;BME280;36472;52.170;20.884;2023-06-24T12:02:57;100826.13;;;24.20;51.29
21276;BME280;36472;52.170;20.884;2023-06-24T12:05:29;100828.41;;;24.08;51.60
21276;BME280;36472;52.170;20.884;2023-06-24T12:08:01;100825.53;;;24.09;52.07
21276;BME280;36472;52.170;20.884;2023-06-24T12:10:31;100828.75;;;24.05;52.81
21276;BME280;36472;52.170;20.884;2023-06-24T12:17:34;100830.78;;;24.03;52.44
21276;BME280;36472;52.170;20.884;2023-06-24T12:20:05;100833.81;;;24.00;50.93
21276;BME280;36472;52.170;20.884;2023-06-24T12:22:35;100830.53;;;23.89;51.09
21276;BME280;36472;52.170;20.884;2023-06-24T12:25:05;100831.06;;;23.85;51.18
21276;BME280;36472;52.170;20.884;2023-06-24T12:27:35;100837.22;;;23.94;50.30
21276;BME280;36472;52.170;20.884;2023-06-24T12:30:06;100842.28;;;23.88;49.89
21276;BME280;36472;52.170;20.884;2023-06-24T12:32:37;100837.25;;;23.85;51.78
21276;BME280;36472;52.170;20.884;2023-06-24T12:35:07;100834.22;;;23.88;51.35
21276;BME280;36472;52.170;20.884;2023-06-24T12:37:37;100837.84;;;24.04;51.09
21276;BME280;36472;52.170;20.884;2023-06-24T12:40:08;100831.13;;;24.00;51.59
21276;BME280;36472;52.170;20.884;2023-06-24T12:42:37;100834.38;;;23.95;50.43
21276;BME280;36472;52.170;20.884;2023-06-24T12:45:07;100833.50;;;23.95;50.92
21276;BME280;36472;52.170;20.884;2023-06-24T12:47:38;100833.28;;;24.04;50.96
21276;BME280;36472;52.170;20.884;2023-06-24T12:50:08;100839.44;;;24.13;50.68
21276;BME280;36472;52.170;20.884;2023-06-24T12:52:38;100843.75;;;24.22;50.01
21276;BME280;36472;52.170;20.884;2023-06-24T12:55:08;100842.72;;;24.23;49.41
21276;BME280;36472;52.170;20.884;2023-06-24T12:57:40;100830.22;;;24.31;49.88
21276;BME280;36472;52.170;20.884;2023-06-24T13:04:42;100830.38;;;24.60;49.20
21276;BME280;36472;52.170;20.884;2023-06-24T13:07:11;100823.81;;;24.78;48.73
21276;BME280;36472;52.170;20.884;2023-06-24T13:09:43;100827.44;;;24.85;47.39
21276;BME280;36472;52.170;20.884;2023-06-24T13:12:12;100828.94;;;24.88;48.01
21276;BME280;36472;52.170;20.884;2023-06-24T13:14:41;100830.41;;;24.90;47.56
21276;BME280;36472;52.170;20.884;2023-06-24T13:17:10;100824.75;;;25.00;47.85
21276;BME280;36472;52.170;20.884;2023-06-24T13:19:39;100826.16;;;25.11;47.29
21276;BME280;36472;52.170;20.884;2023-06-24T13:22:09;100818.38;;;25.01;48.39
21276;BME280;36472;52.170;20.884;2023-06-24T13:24:38;100824.00;;;25.21;48.34
21276;BME280;36472;52.170;20.884;2023-06-24T13:27:07;100814.22;;;25.28;48.63
21276;BME280;36472;52.170;20.884;2023-06-24T13:29:37;100823.69;;;25.39;48.75
21276;BME280;36472;52.170;20.884;2023-06-24T13:32:07;100817.56;;;25.45;48.82
21276;BME280;36472;52.170;20.884;2023-06-24T13:34:36;100816.69;;;25.45;48.17
21276;BME280;36472;52.170;20.884;2023-06-24T13:37:05;100815.88;;;25.44;48.07
21276;BME280;36472;52.170;20.884;2023-06-24T13:39:36;100812.63;;;25.49;46.58
21276;BME280;36472;52.170;20.884;2023-06-24T13:42:06;100815.97;;;25.51;45.39
21276;BME280;36472;52.170;20.884;2023-06-24T13:44:35;100822.44;;;25.56;43.63
21276;BME280;36472;52.170;20.884;2023-06-24T13:51:37;100823.31;;;25.42;40.07
21276;BME280;36472;52.170;20.884;2023-06-24T13:54:06;100824.03;;;25.36;40.66
21276;BME280;36472;52.170;20.884;2023-06-24T13:56:36;100819.22;;;25.31;40.75
21276;BME280;36472;52.170;20.884;2023-06-24T13:59:05;100814.88;;;25.30;40.92
21276;BME280;36472;52.170;20.884;2023-06-24T14:01:34;100819.94;;;25.25;40.99
21276;BME280;36472;52.170;20.884;2023-06-24T14:04:04;100822.19;;;25.07;40.78
21276;BME280;36472;52.170;20.884;2023-06-24T14:06:33;100823.84;;;24.93;41.89
21276;BME280;36472;52.170;20.884;2023-06-24T14:13:35;100826.22;;;24.73;43.38
21276;BME280;36472;52.170;20.884;2023-06-24T14:16:05;100838.38;;;24.69;42.99
21276;BME280;36472;52.170;20.884;2023-06-24T14:18:34;100826.91;;;24.52;44.31
21276;BME280;36472;52.170;20.884;2023-06-24T14:21:06;100825.09;;;24.44;45.47
21276;BME280;36472;52.170;20.884;2023-06-24T14:23:35;100832.56;;;24.34;45.63